createdAt,value
2022-08-12T00:02:05.112Z,41.88
2022-08-12T00:04:53.071Z,41.86
2022-08-12T00:07:39.335Z,42.11
2022-08-12T00:10:27.745Z,42.44
2022-08-12T00:13:14.421Z,43.17
2022-08-12T00:16:04.424Z,43.49
2022-08-12T00:18:50.084Z,43.53
2022-08-12T00:21:39.323Z,43.76
2022-08-12T00:24:28.168Z,43.89
2022-08-12T00:27:15.199Z,44.26
2022-08-12T00:30:02.169Z,43.72
2022-08-12T00:32:48.416Z,43.41
2022-08-12T00:35:40.481Z,43.20
2022-08-12T00:38:26.345Z,43.38
2022-08-12T00:41:14.029Z,43.56
2022-08-12T00:43:44.283Z,44.17
2022-08-12T00:46:29.938Z,44.01
2022-08-12T00:48:58.352Z,43.97
2022-08-12T00:51:48.415Z,43.52
2022-08-12T00:54:18.155Z,43.84
2022-08-12T00:56:49.071Z,44.05
2022-08-12T00:59:17.369Z,43.95
2022-08-12T01:02:10.478Z,43.95
2022-08-12T01:04:59.390Z,43.83
2022-08-12T01:07:47.671Z,43.87
2022-08-12T01:10:34.020Z,43.68
2022-08-12T01:13:18.304Z,44.39
2022-08-12T01:15:51.181Z,44.53
2022-08-12T01:18:23.304Z,44.89
2022-08-12T01:21:45.570Z,45.03
2022-08-12T01:24:33.998Z,44.94
2022-08-12T01:27:07.745Z,44.14
2022-08-12T01:29:44.865Z,44.20
2022-08-12T01:32:15.495Z,43.92
2022-08-12T01:35:09.133Z,43.45
2022-08-12T01:37:59.563Z,43.94
2022-08-12T01:40:37.845Z,44.44
2022-08-12T01:43:15.863Z,44.58
2022-08-12T01:46:08.594Z,44.34
2022-08-12T01:49:22.726Z,45.00
2022-08-12T01:52:15.305Z,44.75
2022-08-12T01:54:51.564Z,45.17
2022-08-12T01:57:59.618Z,45.75
2022-08-12T02:00:55.608Z,45.84
2022-08-12T02:03:31.641Z,45.64
2022-08-12T02:06:41.036Z,45.61
2022-08-12T02:09:34.974Z,45.68
2022-08-12T02:12:51.888Z,45.93
2022-08-12T02:15:53.088Z,46.11
2022-08-12T02:18:54.646Z,46.06
2022-08-12T02:21:40.129Z,46.33
2022-08-12T02:24:13.240Z,46.43
2022-08-12T02:26:44.398Z,46.00
2022-08-12T02:29:13.673Z,46.61
2022-08-12T02:31:45.914Z,46.76
2022-08-12T02:34:16.541Z,46.67
2022-08-12T02:36:45.738Z,46.90
2022-08-12T02:39:18.848Z,46.66
2022-08-12T02:41:50.638Z,46.62
2022-08-12T02:44:22.363Z,46.89
2022-08-12T02:46:55.029Z,46.64
2022-08-12T02:49:32.568Z,46.49
2022-08-12T02:52:01.017Z,46.66
2022-08-12T02:54:28.204Z,47.65
2022-08-12T02:56:55.516Z,47.42
2022-08-12T02:59:27.697Z,47.72
2022-08-12T03:02:02.404Z,47.53
2022-08-12T03:04:44.767Z,46.97
2022-08-12T03:07:21.604Z,46.83
2022-08-12T03:10:15.908Z,46.88
2022-08-12T03:12:49.421Z,46.03
2022-08-12T03:15:22.533Z,47.00
2022-08-12T03:18:29.836Z,47.73
2022-08-12T03:21:01.668Z,48.03
2022-08-12T03:23:31.479Z,48.99
2022-08-12T03:26:03.479Z,49.66
2022-08-12T03:28:51.935Z,49.19
2022-08-12T03:31:25.854Z,49.06
2022-08-12T03:34:01.314Z,49.11
2022-08-12T03:36:35.008Z,48.89
2022-08-12T03:39:18.250Z,48.71
2022-08-12T03:42:04.330Z,49.42
2022-08-12T03:45:08.928Z,49.75
2022-08-12T03:48:28.275Z,49.86
2022-08-12T03:51:16.543Z,49.90
2022-08-12T03:54:03.824Z,50.27
2022-08-12T03:56:51.798Z,50.18
2022-08-12T03:59:37.575Z,50.31
2022-08-12T04:02:04.635Z,50.67
2022-08-12T04:04:35.716Z,51.00
2022-08-12T04:07:09.402Z,51.20
2022-08-12T04:09:43.278Z,51.51
2022-08-12T04:12:32.772Z,51.22
2022-08-12T04:15:01.368Z,51.19
2022-08-12T04:17:29.201Z,51.12
2022-08-12T04:19:58.044Z,51.17
2022-08-12T04:22:30.207Z,51.36
2022-08-12T04:25:02.631Z,51.79
2022-08-12T04:27:31.837Z,52.07
2022-08-12T04:30:16.963Z,51.91
2022-08-12T04:32:50.621Z,52.01
2022-08-12T04:35:18.345Z,52.36
2022-08-12T04:37:59.003Z,52.36
2022-08-12T04:40:36.317Z,52.39
2022-08-12T04:43:03.535Z,52.38
2022-08-12T04:45:37.975Z,52.41
2022-08-12T04:48:07.041Z,52.31
2022-08-12T04:50:37.046Z,52.58
2022-08-12T04:53:09.216Z,52.56
2022-08-12T04:55:39.071Z,52.43
2022-08-12T04:58:08.137Z,52.36
2022-08-12T05:00:37.766Z,52.36
2022-08-12T05:03:07.503Z,52.17
2022-08-12T05:05:36.811Z,52.56
2022-08-12T05:08:07.716Z,51.86
2022-08-12T05:10:35.775Z,51.37
2022-08-12T05:13:10.973Z,51.47
2022-08-12T05:16:04.009Z,51.26
2022-08-12T05:18:29.908Z,50.54
2022-08-12T05:20:59.407Z,50.90
2022-08-12T05:23:27.622Z,50.66
2022-08-12T05:25:56.867Z,51.02
2022-08-12T05:28:26.819Z,50.80
2022-08-12T05:30:54.813Z,50.90
2022-08-12T05:33:26.488Z,50.69
2022-08-12T05:35:53.485Z,50.38
2022-08-12T05:38:38.826Z,50.13
2022-08-12T05:41:18.947Z,49.99
2022-08-12T05:43:54.428Z,49.89
2022-08-12T05:46:27.252Z,49.74
2022-08-12T05:48:55.977Z,50.05
2022-08-12T05:51:28.207Z,50.09
2022-08-12T05:54:06.933Z,49.76
2022-08-12T05:56:36.008Z,49.94
2022-08-12T05:59:07.685Z,49.97
2022-08-12T06:02:11.927Z,49.60
2022-08-12T06:04:23.114Z,49.80
2022-08-12T06:06:53.141Z,49.62
2022-08-12T06:09:20.031Z,49.57
2022-08-12T06:12:04.751Z,49.68
2022-08-12T06:14:37.050Z,49.46
2022-08-12T06:17:08.946Z,49.75
2022-08-12T06:20:26.298Z,49.65
2022-08-12T06:22:22.844Z,49.36
2022-08-12T06:24:49.861Z,49.00
2022-08-12T06:27:18.629Z,48.88
2022-08-12T06:30:08.207Z,48.67
2022-08-12T06:32:32.674Z,48.18
2022-08-12T06:35:25.500Z,47.86
2022-08-12T06:37:56.517Z,47.58
2022-08-12T06:40:44.013Z,47.46
2022-08-12T06:43:11.161Z,47.14
2022-08-12T06:45:46.897Z,47.78
2022-08-12T06:48:14.433Z,47.28
2022-08-12T06:50:42.269Z,47.24
2022-08-12T06:53:11.466Z,46.59
2022-08-12T06:55:56.643Z,45.80
2022-08-12T06:58:26.601Z,45.47
2022-08-12T07:00:55.870Z,45.42
2022-08-12T07:03:27.552Z,45.19
2022-08-12T07:06:04.795Z,45.16
2022-08-12T07:08:35.263Z,45.11
2022-08-12T07:11:09.320Z,44.72
2022-08-12T07:14:11.781Z,44.48
2022-08-12T07:16:50.005Z,44.23
2022-08-12T07:19:18.637Z,43.73
2022-08-12T07:22:00.440Z,43.25
2022-08-12T07:24:29.830Z,43.04
2022-08-12T07:26:56.669Z,42.67
2022-08-12T07:29:24.174Z,42.39
2022-08-12T07:32:11.017Z,41.97
2022-08-12T07:34:38.017Z,41.70
2022-08-12T07:37:05.146Z,41.20
2022-08-12T07:39:35.497Z,40.83
2022-08-12T07:42:03.195Z,40.45
2022-08-12T07:44:32.461Z,40.12
2022-08-12T07:46:59.332Z,39.80
2022-08-12T07:49:28.049Z,39.47
2022-08-12T07:51:54.978Z,39.15
2022-08-12T07:54:22.305Z,39.03
2022-08-12T07:56:49.224Z,38.46
2022-08-12T07:59:16.112Z,37.79
2022-08-12T08:01:43.192Z,37.32
2022-08-12T08:04:28.596Z,35.33
2022-08-12T08:06:57.778Z,35.46
2022-08-12T08:09:24.952Z,35.19
2022-08-12T08:12:19.437Z,34.80
2022-08-12T08:14:49.930Z,33.79
2022-08-12T08:17:17.650Z,33.87
2022-08-12T08:20:01.872Z,33.56
2022-08-12T08:22:41.635Z,32.98
2022-08-12T08:25:36.561Z,33.52
2022-08-12T08:28:11.838Z,32.25
2022-08-12T08:30:45.922Z,32.84
2022-08-12T08:33:24.760Z,32.01
2022-08-12T08:36:02.953Z,32.35
2022-08-12T08:38:32.992Z,32.43
2022-08-12T08:42:19.111Z,31.25
2022-08-12T08:44:12.020Z,30.74
2022-08-12T08:46:44.449Z,30.86
2022-08-12T08:49:12.786Z,30.55
2022-08-12T08:51:40.423Z,29.80
2022-08-12T08:54:08.833Z,30.60
2022-08-12T08:56:49.962Z,30.67
2022-08-12T08:59:22.849Z,31.38
2022-08-12T09:01:49.881Z,29.94
2022-08-12T09:05:09.605Z,28.77
2022-08-12T09:10:09.280Z,29.41
2022-08-12T09:13:23.213Z,29.25
2022-08-12T09:15:59.390Z,28.92
2022-08-12T09:18:33.311Z,28.39
2022-08-12T09:21:01.960Z,28.32
2022-08-12T09:23:56.928Z,28.49
2022-08-12T09:26:19.037Z,28.10
2022-08-12T09:28:53.048Z,28.66
2022-08-12T09:32:03.515Z,29.59
2022-08-12T09:34:28.651Z,28.25
2022-08-12T09:37:02.338Z,28.61
2022-08-12T09:40:05.163Z,26.53
2022-08-12T09:43:11.074Z,26.78
2022-08-12T09:46:12.070Z,28.17
2022-08-12T09:48:24.287Z,25.95
2022-08-12T09:50:55.406Z,27.12
2022-08-12T09:53:29.408Z,26.26
2022-08-12T09:56:57.348Z,28.37
2022-08-12T09:59:00.095Z,26.90
2022-08-12T10:01:34.934Z,28.35
2022-08-12T10:04:19.309Z,26.98
2022-08-12T10:06:54.395Z,26.24
2022-08-12T10:09:28.692Z,24.52
2022-08-12T10:12:32.945Z,26.11
2022-08-12T10:16:00.622Z,25.37
2022-08-12T10:18:07.457Z,25.48
2022-08-12T10:20:34.590Z,26.64
2022-08-12T10:23:01.657Z,24.81
2022-08-12T10:26:35.409Z,25.42
2022-08-12T10:29:02.444Z,24.35
2022-08-12T10:31:47.226Z,27.35
2022-08-12T10:34:26.438Z,24.95
2022-08-12T10:37:00.435Z,25.16
2022-08-12T10:40:00.985Z,24.63
2022-08-12T10:42:57.921Z,23.77
2022-08-12T10:45:27.621Z,26.92
2022-08-12T10:48:20.643Z,24.58
2022-08-12T10:50:56.395Z,24.94
2022-08-12T10:53:46.093Z,24.93
2022-08-12T10:56:18.531Z,25.53
2022-08-12T10:58:46.781Z,22.42
2022-08-12T11:01:49.166Z,22.39
2022-08-12T11:04:23.558Z,22.82
2022-08-12T11:07:09.189Z,23.50
2022-08-12T11:10:00.427Z,23.59
2022-08-12T11:12:54.932Z,22.20
2022-08-12T11:15:32.742Z,21.51
2022-08-12T11:18:17.950Z,22.55
2022-08-12T11:20:47.776Z,21.17
2022-08-12T11:23:25.167Z,24.25
2022-08-12T11:26:05.543Z,19.43
2022-08-12T11:28:37.568Z,20.43
2022-08-12T11:31:11.844Z,20.35
2022-08-12T11:34:04.875Z,19.22
2022-08-12T11:36:31.622Z,19.12
2022-08-12T11:38:58.771Z,19.35
2022-08-12T11:41:33.524Z,19.29
2022-08-12T11:44:20.209Z,19.09
2022-08-12T11:46:52.892Z,18.80
2022-08-12T11:49:31.478Z,18.37
2022-08-12T11:52:04.109Z,17.90
2022-08-12T11:54:31.950Z,18.15
2022-08-12T11:57:02.746Z,17.60
2022-08-12T12:02:20.585Z,17.44
2022-08-12T12:04:52.622Z,16.54
2022-08-12T12:08:36.718Z,16.36
2022-08-12T12:10:15.612Z,18.05
2022-08-12T12:12:49.793Z,17.14
2022-08-12T12:15:24.666Z,17.19
2022-08-12T12:17:54.938Z,17.16
2022-08-12T12:20:21.862Z,15.86
2022-08-12T12:22:54.857Z,16.05
2022-08-12T12:25:21.860Z,16.30
2022-08-12T12:28:08.703Z,16.06
2022-08-12T12:30:55.592Z,15.56
2022-08-12T12:33:22.816Z,15.38
2022-08-12T12:36:18.460Z,15.35
2022-08-12T12:38:36.844Z,15.66
2022-08-12T12:41:16.362Z,15.25
2022-08-12T12:43:44.988Z,15.34
2022-08-12T12:46:23.456Z,15.01
2022-08-12T12:48:50.396Z,14.64
2022-08-12T12:51:49.424Z,14.92
2022-08-12T12:54:09.891Z,15.04
2022-08-12T12:56:42.267Z,15.22
2022-08-12T12:59:54.913Z,14.98
2022-08-12T13:02:14.932Z,14.37
2022-08-12T13:05:00.010Z,14.58
2022-08-12T13:07:54.726Z,14.46
2022-08-12T13:10:14.167Z,14.35
2022-08-12T13:12:42.218Z,14.17
2022-08-12T13:15:42.837Z,14.76
2022-08-12T13:18:05.439Z,14.00
2022-08-12T13:20:37.713Z,13.97
2022-08-12T13:23:07.393Z,14.11
2022-08-12T13:25:55.236Z,13.87
2022-08-12T13:28:28.586Z,13.73
2022-08-12T13:30:57.891Z,14.56
2022-08-12T13:33:28.600Z,14.17
2022-08-12T13:36:05.817Z,13.87
2022-08-12T13:38:44.879Z,13.83
2022-08-12T13:41:33.180Z,13.77
2022-08-12T13:44:06.179Z,14.15
2022-08-12T13:46:38.901Z,13.90
2022-08-12T13:49:07.840Z,14.11
2022-08-12T13:51:40.782Z,14.38
2022-08-12T13:54:11.595Z,14.95
2022-08-12T13:56:40.912Z,14.87
2022-08-12T13:59:08.742Z,14.83
2022-08-12T14:01:41.051Z,15.43
2022-08-12T14:04:12.348Z,15.30
2022-08-12T14:06:40.885Z,16.23
2022-08-12T14:09:15.465Z,17.54
2022-08-12T14:11:58.099Z,18.54
2022-08-12T14:14:31.764Z,18.93
2022-08-12T14:17:05.174Z,18.07
2022-08-12T14:19:37.668Z,17.59
2022-08-12T14:22:05.629Z,16.75
2022-08-12T14:24:40.359Z,16.17
2022-08-12T14:27:10.610Z,15.87
2022-08-12T14:30:05.815Z,15.71
2022-08-12T14:32:35.663Z,15.54
2022-08-12T14:35:09.450Z,15.70
2022-08-12T14:37:57.911Z,15.84
2022-08-12T14:40:30.362Z,17.14
2022-08-12T14:43:00.404Z,16.04
2022-08-12T14:45:45.150Z,16.16
2022-08-12T14:48:18.613Z,16.95
2022-08-12T14:52:38.738Z,18.47
2022-08-12T14:59:55.721Z,17.84
2022-08-12T15:02:19.607Z,17.34
2022-08-12T15:04:59.488Z,16.77
2022-08-12T15:07:33.729Z,16.85
2022-08-12T15:10:31.325Z,17.40
2022-08-12T15:12:58.958Z,17.09
2022-08-12T15:15:25.824Z,16.82
2022-08-12T15:18:02.108Z,16.89
2022-08-12T15:20:37.312Z,16.91
2022-08-12T15:23:17.874Z,17.49
2022-08-12T15:25:50.366Z,18.13
2022-08-12T15:28:33.491Z,18.06
2022-08-12T15:31:02.499Z,18.49
2022-08-12T15:33:45.257Z,19.10
2022-08-12T15:36:19.565Z,20.18
2022-08-12T15:39:02.785Z,20.27
2022-08-12T15:41:29.665Z,20.44
2022-08-12T15:44:42.034Z,20.80
2022-08-12T15:47:04.123Z,20.68
2022-08-12T15:49:43.460Z,20.39
2022-08-12T15:52:28.408Z,20.88
2022-08-12T15:54:59.345Z,20.95
2022-08-12T15:57:33.729Z,21.08
2022-08-12T16:00:06.738Z,21.07
2022-08-12T16:02:49.501Z,21.24
2022-08-12T16:06:11.186Z,21.27
2022-08-12T16:08:17.465Z,21.93
2022-08-12T16:10:47.818Z,21.79
2022-08-12T16:13:32.761Z,22.44
2022-08-12T16:16:23.630Z,21.98
2022-08-12T16:18:59.842Z,22.49
2022-08-12T16:21:52.592Z,22.43
2022-08-12T16:24:21.000Z,22.47
2022-08-12T16:26:51.542Z,22.39
2022-08-12T16:29:29.431Z,22.86
2022-08-12T16:32:16.369Z,22.66
2022-08-12T16:34:55.542Z,23.08
2022-08-12T16:37:32.204Z,23.13
2022-08-12T16:40:06.336Z,23.55
2022-08-12T16:42:39.363Z,23.53
2022-08-12T16:45:17.730Z,23.77
2022-08-12T16:47:58.438Z,23.82
2022-08-12T16:50:30.842Z,23.69
2022-08-12T16:52:59.824Z,24.09
2022-08-12T16:55:41.947Z,23.82
2022-08-12T16:58:25.571Z,23.91
2022-08-12T17:01:02.112Z,24.25
2022-08-12T17:03:38.095Z,23.71
2022-08-12T17:06:19.706Z,23.83
2022-08-12T17:08:55.680Z,23.95
2022-08-12T17:11:24.516Z,23.87
2022-08-12T17:13:53.648Z,24.24
2022-08-12T17:16:21.495Z,23.97
2022-08-12T17:18:59.410Z,24.25
2022-08-12T17:21:40.623Z,24.57
2022-08-12T17:24:17.040Z,24.78
2022-08-12T17:26:49.110Z,24.80
2022-08-12T17:29:24.188Z,24.51
2022-08-12T17:32:10.024Z,24.53
2022-08-12T17:34:55.965Z,24.47
2022-08-12T17:37:22.842Z,24.69
2022-08-12T17:40:12.180Z,24.86
2022-08-12T17:42:43.507Z,25.15
2022-08-12T17:45:21.498Z,25.21
2022-08-12T17:48:00.812Z,25.12
2022-08-12T17:50:40.033Z,24.77
2022-08-12T17:53:10.931Z,24.83
2022-08-12T17:55:48.080Z,24.93
2022-08-12T17:58:36.874Z,24.88
2022-08-12T18:01:05.817Z,25.07
2022-08-12T18:04:05.291Z,24.86
2022-08-12T18:06:27.974Z,25.17
2022-08-12T18:08:58.631Z,25.38
2022-08-12T18:12:06.201Z,24.98
2022-08-12T18:14:32.833Z,25.27
2022-08-12T18:17:08.869Z,25.27
2022-08-12T18:20:05.421Z,25.40
2022-08-12T18:22:30.972Z,25.29
2022-08-12T18:26:11.550Z,25.14
2022-08-12T18:28:15.545Z,25.67
2022-08-12T18:30:52.459Z,25.68
2022-08-12T18:33:25.075Z,25.72
2022-08-12T18:35:55.597Z,25.92
2022-08-12T18:38:26.277Z,26.33
2022-08-12T18:41:21.900Z,26.74
2022-08-12T18:44:06.890Z,26.31
2022-08-12T18:46:54.175Z,26.57
2022-08-12T18:49:38.711Z,26.82
2022-08-12T18:52:08.474Z,27.76
2022-08-12T18:54:49.297Z,27.93
2022-08-12T18:58:05.690Z,27.72
2022-08-12T19:00:22.042Z,28.08
2022-08-12T19:02:53.029Z,28.05
2022-08-12T19:05:20.362Z,29.01
2022-08-12T19:08:00.148Z,29.69
2022-08-12T19:10:31.596Z,29.65
2022-08-12T19:13:23.143Z,30.00
2022-08-12T19:15:57.419Z,30.24
2022-08-12T19:18:29.549Z,30.67
2022-08-12T19:20:58.737Z,30.97
2022-08-12T19:23:34.992Z,31.00
2022-08-12T19:26:05.036Z,31.02
2022-08-12T19:28:38.637Z,30.80
2022-08-12T19:31:56.328Z,30.68
2022-08-12T19:38:03.248Z,30.87
2022-08-12T19:40:32.877Z,31.11
2022-08-12T19:43:19.197Z,31.69
2022-08-12T19:45:56.756Z,31.64
2022-08-12T19:48:30.684Z,31.50
2022-08-12T19:51:09.390Z,31.85
2022-08-12T19:53:57.623Z,31.62
2022-08-12T19:56:28.112Z,31.87
2022-08-12T19:59:18.689Z,31.88
2022-08-12T20:02:01.372Z,31.79
2022-08-12T20:04:37.952Z,31.65
2022-08-12T20:07:09.386Z,31.85
2022-08-12T20:09:52.731Z,32.08
2022-08-12T20:12:31.537Z,33.40
2022-08-12T20:15:09.013Z,33.31
2022-08-12T20:17:50.678Z,33.46
2022-08-12T20:20:21.292Z,33.71
2022-08-12T20:22:57.082Z,33.58
2022-08-12T20:25:51.842Z,34.06
2022-08-12T20:28:12.100Z,34.36
2022-08-12T20:30:53.228Z,34.46
2022-08-12T20:33:50.289Z,33.64
2022-08-12T20:36:41.151Z,33.53
2022-08-12T20:39:03.613Z,33.18
2022-08-12T20:41:31.254Z,34.64
2022-08-12T20:43:59.618Z,34.47
2022-08-12T20:46:32.814Z,34.31
2022-08-12T20:49:14.842Z,34.22
2022-08-12T20:51:55.138Z,34.16
2022-08-12T20:54:23.063Z,34.15
2022-08-12T20:57:02.016Z,34.27
2022-08-12T20:59:38.669Z,34.63
2022-08-12T21:02:15.046Z,34.41
2022-08-12T21:05:01.699Z,33.88
2022-08-12T21:07:51.625Z,34.56
2022-08-12T21:10:20.596Z,34.47
2022-08-12T21:12:48.841Z,34.41
2022-08-12T21:15:23.119Z,34.90
2022-08-12T21:18:11.741Z,35.18
2022-08-12T21:20:54.476Z,35.17
2022-08-12T21:23:22.682Z,35.19
2022-08-12T21:25:53.744Z,35.25
2022-08-12T21:28:22.270Z,35.52
2022-08-12T21:31:10.504Z,36.16
2022-08-12T21:33:58.261Z,36.16
2022-08-12T21:36:34.556Z,35.96
2022-08-12T21:39:20.401Z,36.19
2022-08-12T21:41:56.490Z,36.28
2022-08-12T21:45:47.574Z,36.59
2022-08-12T21:47:21.142Z,36.57
2022-08-12T21:50:06.951Z,36.14
2022-08-12T21:52:41.964Z,36.22
2022-08-12T21:55:18.366Z,36.27
2022-08-12T21:57:53.914Z,36.66
2022-08-12T22:00:32.454Z,36.38
2022-08-12T22:04:03.258Z,36.66
2022-08-12T22:06:20.343Z,36.61
2022-08-12T22:09:02.515Z,36.82
2022-08-12T22:11:41.681Z,36.72
2022-08-12T22:14:10.214Z,36.93
2022-08-12T22:16:46.932Z,36.99
2022-08-12T22:19:19.126Z,37.41
2022-08-12T22:21:53.219Z,37.58
2022-08-12T22:24:27.095Z,37.54
2022-08-12T22:27:18.323Z,37.31
2022-08-12T22:30:05.537Z,37.55
2022-08-12T22:32:38.561Z,37.68
2022-08-12T22:35:29.208Z,37.79
2022-08-12T22:38:08.354Z,38.17
2022-08-12T22:40:38.761Z,38.56
2022-08-12T22:43:24.519Z,38.57
2022-08-12T22:46:09.927Z,39.07
2022-08-12T22:48:36.729Z,39.36
2022-08-12T22:51:19.304Z,39.31
2022-08-12T22:53:48.829Z,39.28
2022-08-12T22:56:19.442Z,39.47
2022-08-12T22:58:47.251Z,39.74
2022-08-12T23:01:21.322Z,39.09
2022-08-12T23:04:02.940Z,39.58
2022-08-12T23:06:29.947Z,40.51
2022-08-12T23:08:56.883Z,40.57
2022-08-12T23:11:25.426Z,40.18
2022-08-12T23:14:03.472Z,40.10
2022-08-12T23:16:33.976Z,40.41
2022-08-12T23:19:09.790Z,40.49
2022-08-12T23:22:06.140Z,40.77
2022-08-12T23:24:55.966Z,40.69
2022-08-12T23:27:50.936Z,40.83
2022-08-12T23:30:31.205Z,40.70
2022-08-12T23:33:00.042Z,41.49
2022-08-12T23:35:45.629Z,41.23
2022-08-12T23:38:28.971Z,41.41
2022-08-12T23:40:59.557Z,41.46
2022-08-12T23:43:26.587Z,41.52
2022-08-12T23:46:18.707Z,41.38
2022-08-12T23:48:48.089Z,42.07
2022-08-12T23:51:22.095Z,42.54
2022-08-12T23:53:56.141Z,42.47
2022-08-12T23:56:25.324Z,42.54
2022-08-12T23:58:55.162Z,42.58
